Time;durP1;ratioP1;P1;durP2;ratioP2;P2;SDS_P1;SDS_P2;PMS_P1;PMS_P2;Temp;Humidity;BMP_temperature;BMP_pressure;BME280_temperature;BME280_humidity;BME280_pressure;Samples;Min_cycle;Max_cycle;Signal;HPM_P1;HPM_P2
2022/10/17 00:02:49;;;;;;;6.88;5.35;;;24.30;53.40;;;;;;7677903;22;80587;-48
2022/10/17 00:05:49;;;;;;;8.73;6.30;;;24.40;53.40;;;;;;7675202;22;81387;-51
2022/10/17 00:08:50;;;;;;;7.78;6.05;;;24.40;53.30;;;;;;7677048;22;80174;-52
2022/10/17 00:11:50;;;;;;;8.05;5.60;;;24.40;53.30;;;;;;7675547;22;81381;-49
2022/10/17 00:14:51;;;;;;;10.27;6.38;;;24.40;53.30;;;;;;7679303;22;81108;-50
2022/10/17 00:17:51;;;;;;;9.60;6.35;;;24.40;53.30;;;;;;7675448;22;80634;-52
2022/10/17 00:20:52;;;;;;;9.05;5.93;;;24.40;53.90;;;;;;7678042;22;80903;-51
2022/10/17 00:23:52;;;;;;;6.47;5.78;;;24.40;53.20;;;;;;7674310;22;80563;-52
2022/10/17 00:26:53;;;;;;;7.88;5.68;;;24.40;53.20;;;;;;7675749;22;80845;-52
2022/10/17 00:29:53;;;;;;;7.38;5.82;;;24.40;53.40;;;;;;7676292;22;81180;-49
2022/10/17 00:32:54;;;;;;;7.07;5.70;;;24.40;53.40;;;;;;7649175;22;82032;-49
2022/10/17 00:35:55;;;;;;;11.82;6.18;;;24.40;53.30;;;;;;7676158;22;80708;-51
2022/10/17 00:38:55;;;;;;;5.38;4.88;;;24.40;53.30;;;;;;7675024;22;80775;-51
2022/10/17 00:41:56;;;;;;;8.25;6.18;;;24.40;53.20;;;;;;7652369;22;81822;-51
2022/10/17 00:44:56;;;;;;;7.22;5.43;;;24.40;53.40;;;;;;7645745;22;81147;-51
2022/10/17 00:47:57;;;;;;;8.60;6.00;;;24.40;53.20;;;;;;7649747;22;83035;-50
2022/10/17 00:50:57;;;;;;;6.32;5.38;;;24.40;53.20;;;;;;7649418;22;81329;-49
2022/10/17 00:53:59;;;;;;;7.28;5.50;;;24.30;53.20;;;;;;7650137;22;83293;-51
2022/10/17 00:56:59;;;;;;;7.50;5.30;;;24.30;53.20;;;;;;7675755;22;80286;-51
2022/10/17 01:00:00;;;;;;;8.55;6.57;;;24.30;53.20;;;;;;7677018;22;80699;-52
2022/10/17 01:03:01;;;;;;;7.47;5.45;;;24.30;53.20;;;;;;7620889;22;180859;-53
2022/10/17 01:06:01;;;;;;;6.45;5.50;;;24.30;53.20;;;;;;7663948;22;82369;-48
2022/10/17 01:09:02;;;;;;;6.32;5.43;;;24.30;53.40;;;;;;7673815;22;80683;-51
2022/10/17 01:12:02;;;;;;;8.10;5.28;;;24.30;53.30;;;;;;7673823;22;80766;-50
2022/10/17 01:15:07;;;;;;;8.05;6.50;;;24.30;53.30;;;;;;7646055;22;82232;-49
2022/10/17 01:18:10;;;;;;;10.85;5.60;;;24.30;53.30;;;;;;7646919;22;80836;-52
2022/10/17 01:21:12;;;;;;;8.65;6.05;;;24.30;53.30;;;;;;7646663;22;83183;-49
2022/10/17 01:24:12;;;;;;;6.85;5.57;;;24.30;53.90;;;;;;7648060;22;83089;-50
2022/10/17 01:27:13;;;;;;;8.05;5.70;;;24.30;53.30;;;;;;7646030;22;83100;-49
2022/10/17 01:30:13;;;;;;;7.60;6.25;;;24.30;53.30;;;;;;7675319;22;80215;-52
2022/10/17 01:33:14;;;;;;;9.18;6.20;;;24.30;53.30;;;;;;7672695;22;80184;-48
2022/10/17 01:36:14;;;;;;;9.00;6.53;;;24.30;53.30;;;;;;7673478;22;80915;-51
2022/10/17 01:39:15;;;;;;;9.40;6.00;;;24.30;53.30;;;;;;7647497;22;82191;-52
2022/10/17 01:42:17;;;;;;;8.38;6.10;;;24.30;53.30;;;;;;7646957;22;82737;-48
2022/10/17 01:45:17;;;;;;;7.32;5.50;;;24.30;53.20;;;;;;7673881;22;80012;-51
2022/10/17 01:48:19;;;;;;;7.63;5.90;;;24.30;53.20;;;;;;7646413;22;82888;-52
2022/10/17 01:51:20;;;;;;;7.53;5.75;;;24.30;53.40;;;;;;7642809;22;83618;-48
2022/10/17 01:54:20;;;;;;;7.68;5.75;;;24.30;53.40;;;;;;7672502;22;81704;-46
2022/10/17 01:57:21;;;;;;;8.05;6.30;;;24.30;53.40;;;;;;7645151;22;82827;-47
2022/10/17 02:00:22;;;;;;;6.05;5.45;;;24.30;53.40;;;;;;7646473;22;82804;-49
2022/10/17 02:03:25;;;;;;;6.75;5.72;;;24.30;53.60;;;;;;7645000;22;83250;-50
2022/10/17 02:06:25;;;;;;;8.55;6.22;;;24.30;54.00;;;;;;7674285;22;80870;-46
2022/10/17 02:09:26;;;;;;;7.63;5.65;;;24.30;53.40;;;;;;7646854;22;83548;-47
2022/10/17 02:12:26;;;;;;;9.27;6.00;;;24.30;53.60;;;;;;7645797;22;82835;-45
2022/10/17 02:15:27;;;;;;;7.63;5.60;;;24.30;53.50;;;;;;7647429;22;83089;-47
2022/10/17 02:18:28;;;;;;;6.18;5.57;;;24.30;53.50;;;;;;7645587;22;82087;-48
2022/10/17 02:21:28;;;;;;;5.80;5.20;;;24.30;53.50;;;;;;7646376;22;83636;-50
2022/10/17 02:24:29;;;;;;;7.72;5.78;;;24.30;53.40;;;;;;7643969;22;83779;-46
2022/10/17 02:27:29;;;;;;;7.95;5.55;;;24.30;53.50;;;;;;7646217;22;82868;-49
2022/10/17 02:30:30;;;;;;;7.68;5.97;;;24.30;53.60;;;;;;7674139;22;80882;-50
2022/10/17 02:33:31;;;;;;;7.05;5.68;;;24.20;53.60;;;;;;7645416;22;81743;-46
2022/10/17 02:36:32;;;;;;;7.35;5.70;;;24.20;53.50;;;;;;7646544;22;83468;-47
2022/10/17 02:39:32;;;;;;;8.48;5.53;;;24.20;53.50;;;;;;7673315;22;80519;-50
2022/10/17 02:42:33;;;;;;;6.82;5.30;;;24.30;53.60;;;;;;7646880;22;83680;-50
2022/10/17 02:45:35;;;;;;;7.15;5.53;;;24.30;53.50;;;;;;7646246;22;83080;-45
2022/10/17 02:48:38;;;;;;;6.82;5.38;;;24.20;53.50;;;;;;7672853;22;82244;-60
2022/10/17 02:51:38;;;;;;;7.07;5.53;;;24.20;53.60;;;;;;7673073;22;80165;-59
2022/10/17 02:54:39;;;;;;;6.53;5.28;;;24.20;53.50;;;;;;7673933;22;80468;-60
2022/10/17 02:57:39;;;;;;;6.60;5.70;;;24.20;53.60;;;;;;7646155;22;87562;-59
2022/10/17 03:00:40;;;;;;;6.55;5.40;;;24.20;53.60;;;;;;7646177;22;83086;-60
2022/10/17 03:03:41;;;;;;;6.40;5.75;;;24.30;53.50;;;;;;7646762;22;83512;-59
2022/10/17 03:06:42;;;;;;;6.28;5.28;;;24.20;53.50;;;;;;7672258;22;80017;-46
2022/10/17 03:09:42;;;;;;;6.88;5.30;;;24.20;53.40;;;;;;7649303;22;83193;-47
2022/10/17 03:12:43;;;;;;;5.93;5.00;;;24.20;53.40;;;;;;7647522;22;83514;-44
2022/10/17 03:15:44;;;;;;;6.93;5.18;;;24.20;53.40;;;;;;7647613;22;82470;-47
2022/10/17 03:18:45;;;;;;;6.45;5.60;;;24.20;53.40;;;;;;7647712;22;82862;-48
2022/10/17 03:21:46;;;;;;;6.05;5.03;;;24.20;53.30;;;;;;7646991;22;82564;-48
2022/10/17 03:24:47;;;;;;;7.57;5.45;;;24.20;53.90;;;;;;7649910;22;83014;-47
2022/10/17 03:27:48;;;;;;;6.57;5.50;;;24.20;53.20;;;;;;7678469;22;81547;-47
2022/10/17 03:30:48;;;;;;;5.88;5.05;;;24.30;53.60;;;;;;7652108;22;83098;-46
2022/10/17 03:33:49;;;;;;;6.28;5.38;;;24.20;53.70;;;;;;7652298;22;83370;-47
2022/10/17 03:36:50;;;;;;;6.28;5.07;;;24.30;53.70;;;;;;7678717;22;82809;-48
2022/10/17 03:39:52;;;;;;;6.72;5.03;;;24.30;53.50;;;;;;7652737;22;82998;-47
2022/10/17 03:42:52;;;;;;;8.40;5.70;;;24.30;53.40;;;;;;7653248;22;83543;-52
2022/10/17 03:45:53;;;;;;;7.03;5.45;;;24.30;53.60;;;;;;7627340;22;81206;-48
2022/10/17 03:48:54;;;;;;;7.45;4.95;;;24.20;53.60;;;;;;7675610;22;80434;-48
2022/10/17 03:51:54;;;;;;;6.22;5.38;;;24.30;53.60;;;;;;7649162;22;83189;-49
2022/10/17 03:54:55;;;;;;;14.98;6.13;;;24.30;53.60;;;;;;7652474;22;82743;-46
2022/10/17 03:57:56;;;;;;;8.88;5.65;;;24.30;53.50;;;;;;7653899;22;83495;-52
2022/10/17 04:00:57;;;;;;;7.60;5.70;;;24.30;53.40;;;;;;7651535;22;83995;-46
2022/10/17 04:03:58;;;;;;;7.97;5.82;;;24.30;53.40;;;;;;7653731;22;82991;-47
2022/10/17 04:07:02;;;;;;;9.25;5.55;;;24.30;53.30;;;;;;7650069;22;87089;-48
2022/10/17 04:10:02;;;;;;;7.38;5.45;;;24.40;53.40;;;;;;7652526;22;81590;-47
2022/10/17 04:13:05;;;;;;;8.55;6.00;;;24.40;53.30;;;;;;7653996;22;83236;-46
2022/10/17 04:16:06;;;;;;;7.53;5.32;;;24.40;53.60;;;;;;7651494;22;82341;-47
2022/10/17 04:19:07;;;;;;;7.80;6.13;;;24.40;53.60;;;;;;7641326;22;82755;-48
2022/10/17 04:22:13;;;;;;;8.52;6.22;;;24.40;53.70;;;;;;7650382;22;83229;-48
2022/10/17 04:25:15;;;;;;;8.82;5.85;;;24.40;53.60;;;;;;7674853;22;80632;-47
2022/10/17 04:28:19;;;;;;;10.35;5.88;;;24.40;53.60;;;;;;7652526;22;82897;-50
2022/10/17 04:31:19;;;;;;;12.18;6.45;;;24.40;53.70;;;;;;7680110;22;81873;-49
2022/10/17 04:34:37;;;;;;;8.75;5.80;;;24.40;53.90;;;;;;7651794;22;83056;-58
2022/10/17 04:37:38;;;;;;;13.27;5.47;;;24.40;54.00;;;;;;7649167;22;80576;-56
2022/10/17 04:40:45;;;;;;;10.38;5.65;;;24.40;54.10;;;;;;7646550;22;81740;-47
2022/10/17 04:43:46;;;;;;;12.50;6.70;;;24.40;54.00;;;;;;7652214;22;81333;-48
2022/10/17 04:46:46;;;;;;;13.13;6.85;;;24.40;54.00;;;;;;7651902;22;82129;-49
2022/10/17 04:49:47;;;;;;;14.30;7.13;;;24.40;54.20;;;;;;7643398;22;83236;-52
2022/10/17 04:52:49;;;;;;;9.88;6.78;;;24.40;54.10;;;;;;7670310;22;82614;-50
2022/10/17 04:55:50;;;;;;;11.63;7.05;;;24.40;54.20;;;;;;7675977;22;80810;-46
2022/10/17 04:58:51;;;;;;;11.25;7.28;;;24.40;54.20;;;;;;7648369;22;81347;-56
2022/10/17 05:01:51;;;;;;;9.60;6.57;;;24.40;54.20;;;;;;7650323;22;81488;-49
2022/10/17 05:04:52;;;;;;;10.20;6.80;;;24.50;54.20;;;;;;7649265;22;82755;-52
2022/10/17 05:07:54;;;;;;;9.25;6.35;;;24.50;54.20;;;;;;7654108;22;82914;-49
2022/10/17 05:10:58;;;;;;;10.77;6.72;;;24.60;54.40;;;;;;7648590;22;82052;-48
2022/10/17 05:13:59;;;;;;;17.88;7.13;;;24.50;54.30;;;;;;7677235;22;80555;-51
2022/10/17 05:16:59;;;;;;;13.15;7.03;;;24.60;55.10;;;;;;7651903;22;87276;-51
2022/10/17 05:20:01;;;;;;;15.73;7.68;;;24.50;54.40;;;;;;7653633;22;82277;-48
2022/10/17 05:23:04;;;;;;;28.58;8.27;;;24.50;54.40;;;;;;7650412;22;83161;-49
2022/10/17 05:26:09;;;;;;;16.65;8.35;;;24.50;54.30;;;;;;7650137;22;83073;-50
2022/10/17 05:29:10;;;;;;;16.95;8.18;;;24.50;54.50;;;;;;7641498;22;82974;-48
2022/10/17 05:32:15;;;;;;;14.17;7.10;;;24.60;54.70;;;;;;7648880;22;82289;-48
2022/10/17 05:35:15;;;;;;;16.27;7.53;;;24.60;54.60;;;;;;7651126;22;81635;-48
2022/10/17 05:38:16;;;;;;;12.13;7.38;;;24.60;54.60;;;;;;7673445;22;82210;-51
2022/10/17 05:41:18;;;;;;;11.50;7.32;;;24.50;54.60;;;;;;7644741;22;82988;-58
2022/10/17 05:44:19;;;;;;;17.83;7.68;;;24.50;54.50;;;;;;7647789;22;82703;-55
2022/10/17 05:47:24;;;;;;;;;;;24.50;54.50;;;;;;7648801;22;87528;-59
2022/10/17 05:50:25;;;;;;;15.93;8.27;;;24.60;54.30;;;;;;7685658;22;80362;-56
2022/10/17 05:53:43;;;;;;;16.92;8.07;;;24.60;54.00;;;;;;7648548;22;80261;-57
2022/10/17 05:56:50;;;;;;;18.13;7.70;;;24.60;54.00;;;;;;7650324;22;82828;-57
2022/10/17 05:59:50;;;;;;;16.27;8.85;;;24.60;54.00;;;;;;7651697;22;83068;-58
2022/10/17 06:02:53;;;;;;;19.42;8.55;;;24.60;53.80;;;;;;7648418;22;81631;-48
2022/10/17 06:05:55;;;;;;;16.00;8.90;;;24.60;53.50;;;;;;7650222;22;82892;-47
2022/10/17 06:08:56;;;;;;;15.55;8.63;;;24.60;53.50;;;;;;7643407;22;83035;-47
2022/10/17 06:12:02;;;;;;;21.73;9.32;;;24.60;53.30;;;;;;7640998;22;83418;-47
2022/10/17 06:15:03;;;;;;;19.15;8.70;;;24.60;53.00;;;;;;7628439;22;82595;-49
2022/10/17 06:18:04;;;;;;;18.10;10.02;;;24.60;53.00;;;;;;7644861;22;83132;-58
2022/10/17 06:21:05;;;;;;;19.00;11.15;;;24.60;52.90;;;;;;7639778;22;84600;-57
2022/10/17 06:24:06;;;;;;;22.45;11.95;;;24.60;52.40;;;;;;7638609;22;83964;-56
2022/10/17 06:27:13;;;;;;;28.83;12.00;;;24.50;51.90;;;;;;7652290;22;83452;-57
2022/10/17 06:30:15;;;;;;;23.38;12.90;;;24.40;51.80;;;;;;7644652;22;84851;-57
2022/10/17 06:33:16;;;;;;;25.50;12.48;;;24.40;51.90;;;;;;7643030;22;85598;-58
2022/10/17 06:36:17;;;;;;;22.30;12.55;;;24.40;51.80;;;;;;7639715;22;85297;-60
2022/10/17 06:39:19;;;;;;;25.17;13.70;;;24.40;51.60;;;;;;7641388;22;85718;-56
2022/10/17 06:42:28;;;;;;;22.60;13.95;;;24.40;51.70;;;;;;7642502;22;85027;-57
2022/10/17 06:45:58;;;;;;;20.83;12.70;;;24.40;51.30;;;;;;7641245;22;85018;-47
2022/10/17 06:49:10;;;;;;;24.17;14.75;;;24.40;51.50;;;;;;7640196;22;90142;-49
2022/10/17 06:52:17;;;;;;;30.45;15.77;;;24.50;51.60;;;;;;7661736;22;84159;-49
2022/10/17 06:55:31;;;;;;;37.30;16.40;;;24.40;51.30;;;;;;7650126;22;85783;-47
2022/10/17 06:58:51;;;;;;;37.65;16.38;;;24.40;51.20;;;;;;7646223;22;85916;-47
2022/10/17 07:02:02;;;;;;;26.95;15.48;;;24.40;50.90;;;;;;7649379;22;86315;-49
2022/10/17 07:05:03;;;;;;;30.83;16.60;;;24.30;50.90;;;;;;7646105;22;85701;-49
2022/10/17 07:08:04;;;;;;;30.67;16.58;;;24.20;50.90;;;;;;7660214;22;83745;-47
2022/10/17 07:11:05;;;;;;;29.25;15.75;;;24.10;51.10;;;;;;7633877;22;85316;-47
2022/10/17 07:14:05;;;;;;;24.38;14.15;;;24.10;51.10;;;;;;7674033;22;84321;-49
2022/10/17 07:17:07;;;;;;;16.58;11.20;;;24.10;51.30;;;;;;7644390;22;85788;-49
2022/10/17 07:20:08;;;;;;;18.80;9.93;;;24.10;51.50;;;;;;7646559;22;84777;-46
2022/10/17 07:23:11;;;;;;;13.65;8.90;;;24.10;51.70;;;;;;7649450;22;85669;-59
2022/10/17 07:26:11;;;;;;;15.07;8.80;;;24.10;51.80;;;;;;7646989;22;83214;-59
2022/10/17 07:29:13;;;;;;;12.68;7.28;;;24.20;52.00;;;;;;7649131;22;83415;-59
2022/10/17 07:32:17;;;;;;;14.90;7.80;;;24.30;52.10;;;;;;7649997;22;83189;-59
2022/10/17 07:35:18;;;;;;;13.40;7.22;;;24.30;52.10;;;;;;7650863;22;80422;-59
2022/10/17 07:38:19;;;;;;;9.15;6.35;;;24.40;52.20;;;;;;7652093;22;83576;-59
2022/10/17 07:41:19;;;;;;;8.30;5.88;;;24.40;52.30;;;;;;7651025;22;83072;-47
2022/10/17 07:44:20;;;;;;;11.10;7.28;;;24.50;52.30;;;;;;7652685;22;83170;-47
2022/10/17 07:47:24;;;;;;;9.75;6.28;;;24.60;52.30;;;;;;7650119;22;83546;-49
2022/10/17 07:50:26;;;;;;;12.40;6.22;;;24.60;52.30;;;;;;7651944;22;82705;-47
2022/10/17 07:53:26;;;;;;;12.90;6.85;;;24.70;52.40;;;;;;7677908;22;82056;-49
2022/10/17 07:56:28;;;;;;;9.20;5.43;;;24.70;52.30;;;;;;7676034;22;80702;-47
2022/10/17 07:59:28;;;;;;;11.50;6.75;;;24.80;52.30;;;;;;7675917;22;80393;-47
2022/10/17 08:02:29;;;;;;;17.60;5.43;;;24.80;52.20;;;;;;7678614;22;80814;-48
2022/10/17 08:05:29;;;;;;;17.40;7.40;;;24.90;52.40;;;;;;7668777;22;82674;-51
2022/10/17 08:08:30;;;;;;;85.47;35.40;;;24.90;52.40;;;;;;7669247;22;81523;-53
2022/10/17 08:11:30;;;;;;;212.73;93.78;;;24.90;52.50;;;;;;7669475;22;84153;-49
2022/10/17 08:14:31;;;;;;;176.77;77.78;;;25.00;52.70;;;;;;7676742;22;82792;-47
2022/10/17 08:17:32;;;;;;;164.88;73.95;;;25.10;52.70;;;;;;7676931;22;85053;-48
2022/10/17 08:20:32;;;;;;;179.35;82.25;;;25.20;52.60;;;;;;7677748;22;82747;-48
2022/10/17 08:23:33;;;;;;;271.45;112.95;;;25.30;52.60;;;;;;7665317;22;83324;-49
2022/10/17 08:26:33;;;;;;;297.95;122.97;;;25.40;52.50;;;;;;7670254;22;85840;-49
2022/10/17 08:29:34;;;;;;;276.00;117.45;;;25.50;52.70;;;;;;7672412;22;85313;-49
2022/10/17 08:32:34;;;;;;;236.60;105.05;;;25.60;52.70;;;;;;7669925;22;85757;-49
2022/10/17 08:35:35;;;;;;;215.85;94.38;;;25.70;52.60;;;;;;7673852;22;85718;-53
2022/10/17 08:38:36;;;;;;;201.45;85.95;;;25.70;52.70;;;;;;7674148;22;85293;-48
2022/10/17 08:41:36;;;;;;;176.10;73.15;;;25.80;52.70;;;;;;7676340;22;83326;-49
2022/10/17 08:44:37;;;;;;;145.95;65.60;;;25.80;52.60;;;;;;7677879;22;82843;-48
2022/10/17 08:47:38;;;;;;;135.57;56.60;;;25.90;52.70;;;;;;7676064;22;83989;-49
2022/10/17 08:50:38;;;;;;;112.15;51.88;;;25.90;52.60;;;;;;7674071;22;83149;-49
2022/10/17 08:53:39;;;;;;;108.85;46.05;;;25.90;52.60;;;;;;7663229;22;82928;-50
2022/10/17 08:56:39;;;;;;;96.93;42.33;;;26.00;52.60;;;;;;7675477;22;84013;-49
2022/10/17 08:59:40;;;;;;;85.28;39.38;;;26.00;52.60;;;;;;7649865;22;82846;-49
2022/10/17 09:02:40;;;;;;;75.30;34.72;;;26.00;52.60;;;;;;7675073;22;84661;-49
2022/10/17 09:05:41;;;;;;;61.13;30.30;;;26.00;52.70;;;;;;7672346;22;83180;-49
2022/10/17 09:08:41;;;;;;;61.85;29.30;;;26.10;52.70;;;;;;7671642;22;83438;-58
2022/10/17 09:11:42;;;;;;;49.20;22.73;;;26.00;52.80;;;;;;7675114;22;82958;-59
2022/10/17 09:14:42;;;;;;;46.47;21.55;;;26.10;52.80;;;;;;7679276;22;82950;-57
2022/10/17 09:17:43;;;;;;;39.05;18.63;;;26.20;52.90;;;;;;7677327;22;82971;-58
2022/10/17 09:20:44;;;;;;;32.55;16.35;;;26.20;53.10;;;;;;7671848;22;82761;-58
2022/10/17 09:23:44;;;;;;;36.78;17.08;;;26.10;53.20;;;;;;7667939;22;83299;-57
2022/10/17 09:26:45;;;;;;;35.17;16.30;;;26.20;53.30;;;;;;7665492;22;82902;-51
2022/10/17 09:29:46;;;;;;;30.90;15.27;;;26.20;53.00;;;;;;7673221;22;84879;-55
2022/10/17 09:32:46;;;;;;;30.73;12.77;;;26.30;53.10;;;;;;7672819;22;82881;-62
2022/10/17 09:35:47;;;;;;;30.73;11.48;;;26.30;53.20;;;;;;7672791;22;83438;-62
2022/10/17 09:38:47;;;;;;;27.73;11.48;;;26.30;53.20;;;;;;7675572;22;83030;-62
2022/10/17 09:41:48;;;;;;;20.50;11.10;;;26.30;53.10;;;;;;7675220;22;83218;-62
2022/10/17 09:44:49;;;;;;;22.13;10.63;;;26.30;53.40;;;;;;7676722;22;82810;-63
2022/10/17 09:47:49;;;;;;;17.27;9.38;;;26.30;53.10;;;;;;7674256;22;82830;-62
2022/10/17 09:50:50;;;;;;;18.92;9.63;;;26.30;52.90;;;;;;7678463;22;82745;-63
2022/10/17 09:53:50;;;;;;;23.27;10.05;;;26.30;53.40;;;;;;7683253;22;81581;-62
2022/10/17 09:56:51;;;;;;;18.20;8.10;;;26.30;53.10;;;;;;7676011;22;84891;-62
2022/10/17 09:59:51;;;;;;;15.25;8.50;;;26.40;52.90;;;;;;7674607;22;82929;-62
2022/10/17 10:02:52;;;;;;;16.35;8.55;;;26.40;53.00;;;;;;7679931;22;80582;-61
2022/10/17 10:05:52;;;;;;;13.23;7.45;;;26.40;53.00;;;;;;7673942;22;80403;-63
2022/10/17 10:08:53;;;;;;;15.05;8.23;;;26.40;52.80;;;;;;7675704;22;80297;-60
2022/10/17 10:11:54;;;;;;;11.68;7.68;;;26.40;52.90;;;;;;7680143;22;80493;-60
2022/10/17 10:14:54;;;;;;;10.93;6.60;;;26.40;52.80;;;;;;7681771;22;80434;-62
2022/10/17 10:17:55;;;;;;;8.52;6.05;;;26.50;52.70;;;;;;7681744;22;80283;-64
2022/10/17 10:20:59;;;;;;;9.30;6.32;;;26.50;52.70;;;;;;7678101;22;80216;-63
2022/10/17 10:23:59;;;;;;;11.15;6.93;;;26.50;53.00;;;;;;7677938;22;80385;-64
2022/10/17 10:27:00;;;;;;;13.20;7.45;;;26.50;53.70;;;;;;7670120;22;80076;-53
2022/10/17 10:30:00;;;;;;;13.57;6.80;;;26.50;54.10;;;;;;7676053;22;81464;-55
2022/10/17 10:33:01;;;;;;;10.32;6.47;;;26.60;54.10;;;;;;7678731;22;80851;-56
2022/10/17 10:36:02;;;;;;;10.20;6.57;;;26.60;54.20;;;;;;7674309;22;80491;-54
2022/10/17 10:39:02;;;;;;;9.77;6.05;;;26.70;54.70;;;;;;7670431;22;79961;-56
2022/10/17 10:42:03;;;;;;;10.73;6.45;;;26.70;54.50;;;;;;7676881;22;80339;-56
2022/10/17 10:45:03;;;;;;;12.05;5.88;;;26.70;54.60;;;;;;7676951;22;80572;-51
2022/10/17 10:48:04;;;;;;;8.90;5.78;;;26.80;54.70;;;;;;7674089;22;81952;-54
2022/10/17 10:51:04;;;;;;;10.95;5.47;;;26.80;54.80;;;;;;7653837;22;81952;-54
2022/10/17 10:54:05;;;;;;;12.98;5.88;;;26.90;54.90;;;;;;7652936;22;80694;-56
2022/10/17 10:57:06;;;;;;;10.68;5.80;;;26.90;54.70;;;;;;7679504;22;80544;-55
2022/10/17 11:00:06;;;;;;;6.93;5.05;;;27.00;54.80;;;;;;7680127;22;80027;-54
2022/10/17 11:03:07;;;;;;;7.10;5.10;;;26.90;55.30;;;;;;7678139;22;80221;-56
2022/10/17 11:06:07;;;;;;;8.02;5.10;;;26.90;55.60;;;;;;7680601;22;80268;-58
2022/10/17 11:09:08;;;;;;;10.02;5.43;;;27.00;55.40;;;;;;7642684;22;80993;-57
2022/10/17 11:12:08;;;;;;;9.45;5.28;;;27.00;54.90;;;;;;7673779;22;81471;-52
2022/10/17 11:15:09;;;;;;;8.88;5.50;;;27.00;54.40;;;;;;7674038;22;81354;-58
2022/10/17 11:18:10;;;;;;;8.77;5.15;;;27.00;54.40;;;;;;7671472;22;87101;-56
2022/10/17 11:21:10;;;;;;;8.57;5.45;;;27.00;54.80;;;;;;7675358;22;80412;-54
2022/10/17 11:24:11;;;;;;;5.90;4.43;;;27.10;55.80;;;;;;7679790;22;80935;-60
2022/10/17 11:27:11;;;;;;;8.05;5.43;;;27.10;56.00;;;;;;7672744;22;80962;-62
2022/10/17 11:30:12;;;;;;;8.75;5.38;;;27.10;56.70;;;;;;7677724;22;80313;-62
2022/10/17 11:33:12;;;;;;;6.15;5.45;;;27.10;56.30;;;;;;7678937;22;81668;-70
2022/10/17 11:36:13;;;;;;;11.07;6.03;;;27.20;56.10;;;;;;7681170;22;80341;-70
2022/10/17 11:39:13;;;;;;;8.93;6.20;;;27.20;55.50;;;;;;7681066;22;80780;-71
2022/10/17 11:42:14;;;;;;;9.45;6.15;;;27.30;52.80;;;;;;7676876;22;80244;-59
2022/10/17 11:45:14;;;;;;;11.93;6.78;;;27.30;55.20;;;;;;7676699;22;80695;-60
2022/10/17 11:48:15;;;;;;;9.45;6.32;;;27.40;55.80;;;;;;7677247;22;80133;-60
2022/10/17 11:51:15;;;;;;;11.98;6.50;;;27.30;53.70;;;;;;7676683;22;81228;-60
2022/10/17 11:54:16;;;;;;;13.00;7.28;;;27.30;54.90;;;;;;7674449;22;81384;-61
2022/10/17 11:57:16;;;;;;;11.00;6.82;;;27.30;54.20;;;;;;7681960;22;80585;-60
2022/10/17 12:00:17;;;;;;;10.65;7.32;;;27.30;52.20;;;;;;7679950;22;80953;-55
2022/10/17 12:03:18;;;;;;;8.77;7.07;;;27.40;50.80;;;;;;7683265;22;80332;-53
2022/10/17 12:06:18;;;;;;;9.45;6.90;;;27.40;49.30;;;;;;7679896;22;80497;-55
2022/10/17 12:09:19;;;;;;;10.95;7.45;;;27.40;49.60;;;;;;7681449;22;80285;-52
2022/10/17 12:12:19;;;;;;;11.80;7.15;;;27.50;51.20;;;;;;7681240;22;80216;-55
2022/10/17 12:15:23;;;;;;;10.75;8.02;;;27.50;50.90;;;;;;7679452;22;80346;-52
2022/10/17 12:18:24;;;;;;;9.35;7.18;;;27.40;49.20;;;;;;7675037;22;80620;-50
2022/10/17 12:21:24;;;;;;;12.25;6.45;;;27.50;48.90;;;;;;7676109;22;80133;-53
2022/10/17 12:24:25;;;;;;;9.02;7.60;;;27.60;48.20;;;;;;7676159;22;80829;-53
2022/10/17 12:27:25;;;;;;;13.32;6.93;;;27.60;49.20;;;;;;7678010;22;81103;-59
2022/10/17 12:30:26;;;;;;;12.70;8.27;;;27.60;48.20;;;;;;7679180;22;80863;-59
2022/10/17 12:33:26;;;;;;;12.32;8.30;;;27.60;47.50;;;;;;7674197;22;79941;-49
2022/10/17 12:36:27;;;;;;;10.48;7.85;;;27.60;48.00;;;;;;7677105;22;80672;-46
2022/10/17 12:39:28;;;;;;;10.30;7.68;;;27.60;49.10;;;;;;7677526;22;80125;-46
2022/10/17 12:42:28;;;;;;;11.98;8.48;;;27.60;49.30;;;;;;7674261;22;80657;-47
2022/10/17 12:45:29;;;;;;;9.90;8.05;;;27.60;51.80;;;;;;7675088;22;80736;-47
2022/10/17 12:48:29;;;;;;;14.10;10.45;;;27.60;52.20;;;;;;7677778;22;80427;-46
2022/10/17 12:51:30;;;;;;;11.63;8.80;;;27.60;48.70;;;;;;7642818;22;84273;-50
2022/10/17 12:54:30;;;;;;;14.23;9.23;;;27.60;49.10;;;;;;7671862;22;81761;-61
2022/10/17 12:57:32;;;;;;;13.00;10.00;;;27.60;49.20;;;;;;7681185;22;81567;-59
2022/10/17 13:00:32;;;;;;;11.65;8.20;;;27.60;48.70;;;;;;7671782;22;82559;-59
2022/10/17 13:03:33;;;;;;;13.00;8.65;;;27.60;48.50;;;;;;7678664;22;83346;-57
2022/10/17 13:06:38;;;;;;;15.20;8.27;;;27.60;48.30;;;;;;7677747;22;81638;-57
2022/10/17 13:09:39;;;;;;;19.90;8.40;;;27.60;50.50;;;;;;7671586;22;81401;-60
2022/10/17 13:12:39;;;;;;;10.07;8.15;;;27.50;51.80;;;;;;7659573;22;81869;-71
2022/10/17 13:15:40;;;;;;;12.32;8.38;;;27.50;49.40;;;;;;7663410;22;80780;-68
2022/10/17 13:18:40;;;;;;;10.25;7.53;;;27.50;50.00;;;;;;7681031;22;80723;-72
2022/10/17 13:21:41;;;;;;;13.35;8.40;;;27.50;50.40;;;;;;7682214;22;80777;-70
2022/10/17 13:24:42;;;;;;;24.95;8.68;;;27.50;50.80;;;;;;7681216;22;80418;-67
2022/10/17 13:27:42;;;;;;;12.00;8.48;;;27.50;51.90;;;;;;7666874;22;80337;-69
2022/10/17 13:30:43;;;;;;;10.38;8.13;;;27.50;51.30;;;;;;7675032;22;80715;-57
2022/10/17 13:33:43;;;;;;;14.68;9.15;;;27.50;51.10;;;;;;7666311;22;81650;-60
2022/10/17 13:36:44;;;;;;;21.42;9.82;;;27.50;50.80;;;;;;7674113;22;80746;-59
2022/10/17 13:39:44;;;;;;;11.57;9.00;;;27.60;51.40;;;;;;7672104;22;80351;-60
2022/10/17 13:42:45;;;;;;;16.58;8.95;;;27.50;51.80;;;;;;7674859;22;80142;-60
2022/10/17 13:45:45;;;;;;;14.80;9.25;;;27.50;51.40;;;;;;7676317;22;81070;-59
2022/10/17 13:48:47;;;;;;;10.88;8.27;;;27.50;50.90;;;;;;7676961;22;80425;-58
2022/10/17 13:51:48;;;;;;;11.20;8.35;;;27.50;52.10;;;;;;7653523;22;80289;-59
2022/10/17 13:54:49;;;;;;;14.75;10.38;;;27.50;52.00;;;;;;7680962;22;81480;-59
2022/10/17 13:57:51;;;;;;;18.05;11.68;;;27.50;51.00;;;;;;7671524;22;83581;-59
2022/10/17 14:00:51;;;;;;;16.20;11.55;;;27.40;50.80;;;;;;7676998;22;82728;-58
2022/10/17 14:03:52;;;;;;;22.38;12.23;;;27.40;50.90;;;;;;7678096;22;83173;-58
2022/10/17 14:06:53;;;;;;;17.88;12.20;;;27.40;50.40;;;;;;7677240;22;83161;-58
2022/10/17 14:09:53;;;;;;;17.10;11.13;;;27.40;50.50;;;;;;7676282;22;83266;-61
2022/10/17 14:12:54;;;;;;;21.92;11.77;;;27.40;50.80;;;;;;7675504;22;82890;-59
2022/10/17 14:15:54;;;;;;;15.93;10.65;;;27.40;51.20;;;;;;7675002;22;82953;-59
2022/10/17 14:18:55;;;;;;;17.40;9.68;;;27.30;50.70;;;;;;7676047;22;83028;-60
2022/10/17 14:21:56;;;;;;;20.58;9.73;;;27.30;50.30;;;;;;7679228;22;81631;-58
2022/10/17 14:24:56;;;;;;;13.02;9.75;;;27.30;50.40;;;;;;7682609;22;80977;-59
2022/10/17 14:28:02;;;;;;;12.80;8.90;;;27.30;50.30;;;;;;7677658;22;81914;-61
2022/10/17 14:31:02;;;;;;;14.80;8.90;;;27.30;49.60;;;;;;7678712;22;84721;-59
2022/10/17 14:34:03;;;;;;;14.20;9.00;;;27.30;49.20;;;;;;7654482;22;81727;-60
2022/10/17 14:37:03;;;;;;;11.70;8.73;;;27.30;48.80;;;;;;7682984;22;80541;-60
2022/10/17 14:40:04;;;;;;;15.35;8.50;;;27.30;48.70;;;;;;7676673;22;82162;-60
2022/10/17 14:43:04;;;;;;;11.38;8.60;;;27.30;48.90;;;;;;7673704;22;80707;-63
2022/10/17 14:46:05;;;;;;;12.90;8.77;;;27.30;49.00;;;;;;7678248;22;81276;-57
2022/10/17 14:49:06;;;;;;;13.95;8.15;;;27.40;49.40;;;;;;7679637;22;80280;-57
2022/10/17 14:52:06;;;;;;;16.27;7.85;;;27.30;48.90;;;;;;7679672;22;81649;-57
2022/10/17 14:55:07;;;;;;;17.40;8.43;;;27.30;49.20;;;;;;7680380;22;81812;-59
2022/10/17 14:58:07;;;;;;;14.93;8.45;;;27.30;49.00;;;;;;7682159;22;81041;-57
2022/10/17 15:01:08;;;;;;;14.35;7.85;;;27.30;48.40;;;;;;7677285;22;80661;-58
2022/10/17 15:04:09;;;;;;;12.13;7.78;;;27.40;48.30;;;;;;7681626;22;81055;-57
2022/10/17 15:07:10;;;;;;;14.77;8.27;;;27.40;48.40;;;;;;7678855;22;80684;-56
2022/10/17 15:10:10;;;;;;;17.42;9.18;;;27.40;49.00;;;;;;7682006;22;80588;-55
2022/10/17 15:13:11;;;;;;;16.75;9.70;;;27.30;49.20;;;;;;7682420;22;81039;-56
2022/10/17 15:16:11;;;;;;;13.35;9.82;;;27.20;49.20;;;;;;7680362;22;80495;-57
2022/10/17 15:19:12;;;;;;;21.33;10.38;;;27.10;49.60;;;;;;7681617;22;81896;-57
2022/10/17 15:22:14;;;;;;;13.02;9.63;;;27.00;49.20;;;;;;7678097;22;83049;-68
2022/10/17 15:25:15;;;;;;;14.13;9.43;;;26.90;49.50;;;;;;7682514;22;83532;-68
2022/10/17 15:28:16;;;;;;;18.63;9.40;;;26.80;49.90;;;;;;7683386;22;81932;-67
2022/10/17 15:31:16;;;;;;;16.67;9.80;;;26.70;49.70;;;;;;7682960;22;81193;-68
2022/10/17 15:34:17;;;;;;;23.75;11.40;;;26.60;50.30;;;;;;7682023;22;80181;-68